Weather at Mriya Resort Helipad

Public forecast

Using degrees Celsius for public forecast. Weather courtesy of forecast.io.

Closest aviation weather report (METAR) to Mriya Resort Helipad

Closest report is Anapa Vityazevo Airport, 149.8 nm (277.4 km) ENE.

2024/05/19 08:00 (retrieved 11 minutes ago)

URKA 190800Z 32004MPS 230V360 9999 SCT032 21/13 Q1017 R03/010070 NOSIG RMK QFE759/1012

Closest aviation forecast (TAF) to Mriya Resort Helipad

Closest forecast is Anapa Vityazevo Airport, 149.8 nm (277.4 km) ENE.

2024/05/19 06:21 Correction (retrieved 2 hours ago)

TAF TAF COR URKA 190456Z 1906/2006 34003G08MPS 9999 SCT020CB TEMPO 1906/1918 28003G08MPS 6000 -TSRA BKN016CB BECMG 1918/1919 6000 SCT016 TEMPO 1920/2005 15003MPS 0200 FG SCT002 BKN016